.
WxDataArchive / Data Records for 2012-03-28
2012-03-27 March 2012 2012-03-29

Data Records for Wednesday, 28 March 2012

Time	Temp	Chill	HIndex	Humid	Dewpt	 Wind 	HiWind	WindDir	Rain 	Barom 
-----	----	-----	------	-----	-----	------	------	-------	-----	----- 
00:00	55.4	55.4	55.4	50	37.1	1	4	270	0.00	29.894 
00:05	55.6	55.6	55.6	50	37.3	1	4	225	0.00	29.894 
00:10	55.6	55.6	55.6	50	37.3	1	6	248	0.00	29.894 
00:15	55.9	55.9	55.9	50	37.5	1	4	248	0.00	29.887 
00:20	55.9	55.9	55.9	50	37.5	1	4	248	0.00	29.887 
00:25	56.0	56.0	56.0	50	37.6	2	6	248	0.00	29.887 
00:30	56.0	56.0	56.0	51	38.1	1	4	248	0.00	29.875 
00:35	56.2	56.2	56.2	51	38.3	1	5	248	0.00	29.875 
00:40	56.3	56.3	56.3	51	38.4	1	5	270	0.00	29.875 
00:45	56.5	56.5	56.5	51	38.6	1	4	225	0.00	29.875 
00:50	56.5	56.5	56.5	51	38.6	1	3	0	0.00	29.875 
00:55	56.5	56.5	56.5	52	39.1	1	5	248	0.00	29.875 
01:00	56.7	56.7	56.7	51	38.8	2	5	270	0.00	29.872 
01:05	56.9	56.9	56.9	51	39.0	1	4	248	0.00	29.872 
01:10	57.0	57.0	57.0	51	39.1	1	5	248	0.00	29.872 
01:15	57.2	57.2	57.2	51	39.2	1	7	225	0.00	29.867 
01:20	57.3	57.3	57.3	51	39.3	1	5	225	0.00	29.867 
01:25	57.3	57.3	57.3	51	39.3	1	5	248	0.00	29.867 
01:30	57.3	57.3	57.3	51	39.3	1	3	248	0.00	29.857 
01:35	57.5	57.5	57.5	51	39.5	1	4	248	0.00	29.857 
01:40	57.5	57.5	57.5	51	39.5	1	4	225	0.00	29.857 
01:45	57.6	57.6	57.6	51	39.6	2	9	248	0.00	29.844 
01:50	57.8	57.8	57.8	51	39.8	1	6	248	0.00	29.844 
01:55	57.8	57.8	57.8	52	40.3	1	3	225	0.00	29.844 
02:00	58.0	58.0	58.0	52	40.5	2	5	248	0.00	29.838 
02:05	58.1	58.1	58.1	51	40.1	2	5	248	0.00	29.838 
02:10	58.3	58.3	58.3	51	40.3	2	9	248	0.00	29.838 
02:15	58.4	58.4	58.4	51	40.3	1	5	248	0.00	29.835 
02:20	58.6	58.6	58.6	51	40.5	2	6	248	0.00	29.835 
02:25	58.7	58.7	58.7	51	40.6	1	4	248	0.00	29.835 
02:30	58.9	58.9	58.9	51	40.8	2	5	248	0.00	29.829 
02:35	58.9	58.9	58.9	51	40.8	2	8	270	0.00	29.829 
02:40	59.0	59.0	59.0	52	41.4	2	4	248	0.00	29.829 
02:45	59.2	59.2	59.2	53	42.1	2	6	270	0.00	29.821 
02:50	59.3	59.3	59.3	52	41.7	2	6	225	0.00	29.821 
02:55	59.3	59.3	59.3	53	42.2	1	5	248	0.00	29.821 
03:00	59.5	59.5	59.5	53	42.4	2	7	225	0.00	29.812 
03:05	59.5	59.5	59.5	53	42.4	1	5	248	0.00	29.812 
03:10	59.5	59.5	59.5	53	42.4	1	4	248	0.00	29.812 
03:15	59.5	59.5	59.5	54	42.8	1	5	248	0.00	29.789 
03:20	59.5	59.5	59.5	55	43.3	1	3	248	0.00	29.789 
03:25	59.5	59.5	59.5	55	43.3	1	4	248	0.00	29.789 
03:30	59.5	59.5	59.5	56	43.8	0	2	270	0.00	29.784 
03:35	59.6	59.6	59.6	57	44.3	1	3	248	0.00	29.784 
03:40	59.9	59.9	59.9	58	45.1	2	6	248	0.00	29.784 
03:45	60.9	60.9	60.9	58	46.0	3	7	248	0.00	29.786 
03:50	61.5	61.5	61.5	57	46.1	2	7	248	0.00	29.786 
03:55	62.1	62.1	62.1	57	46.7	3	6	248	0.00	29.786 
04:00	62.6	62.6	62.6	56	46.7	4	9	248	0.00	29.778 
04:05	62.7	62.7	62.7	56	46.8	2	7	248	0.00	29.778 
04:10	62.7	62.7	62.7	56	46.8	3	7	248	0.00	29.778 
04:15	62.7	62.7	62.7	56	46.8	3	6	248	0.00	29.772 
04:20	62.6	62.6	62.6	56	46.7	4	8	248	0.00	29.772 
04:25	62.4	62.4	62.4	57	47.0	4	10	248	0.00	29.772 
04:30	62.3	62.3	62.3	57	46.9	3	8	225	0.00	29.777 
04:35	62.1	62.1	62.1	58	47.1	4	11	248	0.00	29.777 
04:40	62.0	62.0	62.0	58	47.0	2	6	248	0.00	29.777 
04:45	61.8	61.8	61.8	58	46.9	3	10	248	0.00	29.769 
04:50	61.6	61.6	61.6	59	47.1	3	7	248	0.00	29.769 
04:55	61.5	61.5	61.5	60	47.5	3	6	248	0.00	29.769 
05:00	61.3	61.3	61.3	60	47.3	3	5	248	0.00	29.769 
05:05	61.2	61.2	61.2	61	47.6	2	5	248	0.00	29.769 
05:10	61.2	61.2	61.2	61	47.6	2	5	248	0.00	29.769 
05:15	60.9	60.9	60.9	62	47.8	1	6	248	0.00	29.766 
05:20	60.9	60.9	60.9	62	47.8	2	5	248	0.00	29.766 
05:25	60.7	60.7	60.7	63	48.0	1	4	248	0.00	29.766 
05:30	60.5	60.5	60.5	63	47.8	1	4	248	0.00	29.765 
05:35	60.4	60.4	60.4	64	48.2	2	3	248	0.00	29.765 
05:40	60.4	60.4	60.4	64	48.2	1	4	248	0.00	29.765 
05:45	60.2	60.2	60.2	65	48.4	2	4	248	0.00	29.771 
05:50	60.1	60.1	60.1	65	48.3	1	4	248	0.00	29.771 
05:55	60.1	60.1	60.1	66	48.7	2	4	248	0.00	29.771 
06:00	59.9	59.9	59.9	66	48.5	1	4	248	0.00	29.778 
06:05	59.9	59.9	59.9	67	48.9	1	4	248	0.00	29.778 
06:10	59.9	59.9	59.9	67	48.9	1	3	248	0.00	29.778 
06:15	59.8	59.8	59.8	68	49.2	1	4	248	0.00	29.783 
06:20	59.8	59.8	59.8	69	49.6	1	3	248	0.00	29.783 
06:25	59.8	59.8	59.8	69	49.6	1	5	248	0.00	29.783 
06:30	59.8	59.8	59.8	70	50.0	1	5	270	0.00	29.784 
06:35	59.8	59.8	59.8	70	50.0	1	4	248	0.00	29.784 
06:40	59.9	59.9	59.9	71	50.5	1	3	248	0.00	29.784 
06:45	59.9	59.9	59.9	71	50.5	1	2	248	0.00	29.784 
06:50	60.1	60.1	60.1	72	51.0	2	4	248	0.00	29.784 
06:55	60.2	60.2	60.2	72	51.1	1	3	270	0.00	29.784 
07:00	60.2	60.2	60.2	73	51.5	1	5	248	0.00	29.786 
07:05	60.1	60.1	60.1	73	51.4	1	3	248	0.00	29.786 
07:10	60.2	60.2	60.2	73	51.5	2	6	248	0.00	29.786 
07:15	60.2	60.2	60.2	73	51.5	2	4	225	0.00	29.789 
07:20	60.2	60.2	60.2	73	51.5	2	4	225	0.00	29.789 
07:25	60.1	60.1	60.1	74	51.8	2	5	225	0.00	29.789 
07:30	59.9	59.9	59.9	74	51.6	1	3	248	0.00	29.789 
07:35	59.8	59.8	59.8	75	51.9	1	4	248	0.00	29.789 
07:40	59.8	59.8	59.8	75	51.9	1	4	248	0.00	29.789 
07:45	59.6	59.6	59.6	76	52.0	1	4	248	0.00	29.797 
07:50	59.6	59.6	59.6	76	52.0	1	5	248	0.00	29.797 
07:55	59.5	59.5	59.5	77	52.3	1	3	248	0.00	29.797 
08:00	59.5	59.5	59.5	77	52.3	1	3	248	0.00	29.802 
08:05	59.5	59.5	59.5	77	52.3	1	4	248	0.00	29.802 
08:10	59.5	59.5	59.5	78	52.6	1	4	248	0.00	29.802 
08:15	59.6	59.6	59.6	78	52.7	1	3	248	0.00	29.802 
08:20	59.6	59.6	59.6	78	52.7	2	5	248	0.00	29.802 
08:25	59.9	59.9	59.9	78	53.0	2	6	248	0.00	29.802 
08:30	60.1	60.1	60.1	78	53.2	2	4	248	0.00	29.803 
08:35	60.2	60.2	60.2	78	53.3	2	6	248	0.00	29.803 
08:40	60.5	60.5	60.5	77	53.2	3	5	270	0.00	29.803 
08:45	60.9	60.9	60.9	77	53.6	3	5	270	0.00	29.805 
08:50	61.0	61.0	61.0	77	53.7	3	6	248	0.00	29.805 
08:55	61.3	61.3	61.3	76	53.7	3	6	248	0.00	29.805 
09:00	61.5	61.5	61.5	76	53.9	2	5	248	0.00	29.806 
09:05	61.6	61.6	61.6	76	54.0	2	4	248	0.00	29.806 
09:10	61.8	61.8	61.8	75	53.8	3	6	248	0.00	29.806 
09:15	62.0	62.0	62.0	74	53.6	3	6	248	0.00	29.804 
09:20	62.1	62.1	62.1	73	53.3	3	7	248	0.00	29.804 
09:25	62.1	62.1	62.1	73	53.3	4	8	270	0.00	29.804 
09:30	62.3	62.3	62.3	72	53.2	4	9	248	0.00	29.801 
09:35	62.4	62.4	62.4	71	52.9	3	6	248	0.00	29.801 
09:40	62.6	62.6	62.6	69	52.3	3	6	248	0.00	29.801 
09:45	62.6	62.6	62.6	68	51.9	4	9	270	0.00	29.802 
09:50	62.9	62.9	62.9	68	52.2	4	6	270	0.00	29.802 
09:55	63.1	63.1	63.1	67	52.0	4	10	248	0.00	29.802 
10:00	63.2	63.2	63.2	67	52.1	4	6	270	0.00	29.803 
10:05	63.7	63.7	63.7	67	52.5	3	5	270	0.00	29.803 
10:10	63.9	63.9	63.9	63	51.1	4	8	270	0.00	29.803 
10:15	63.9	63.9	63.9	61	50.2	5	9	270	0.00	29.800 
10:20	64.2	64.2	64.2	61	50.5	5	10	270	0.00	29.800 
10:25	64.2	64.2	64.2	58	49.1	5	11	270	0.00	29.800 
10:30	64.3	64.3	64.3	59	49.7	4	8	270	0.00	29.802 
10:35	64.7	64.7	64.7	57	49.1	4	9	270	0.00	29.802 
10:40	64.5	64.5	64.5	54	47.5	6	10	270	0.00	29.802 
10:45	64.8	64.8	64.8	54	47.8	4	8	270	0.00	29.802 
10:50	65.0	65.0	65.0	51	46.4	5	9	270	0.00	29.802 
10:55	65.0	65.0	65.0	47	44.3	5	11	270	0.00	29.802 
11:00	65.3	65.3	65.3	46	44.0	4	10	270	0.00	29.803 
11:05	65.3	65.3	65.3	42	41.6	5	7	270	0.00	29.803 
11:10	65.6	65.6	65.6	42	41.9	4	8	270	0.00	29.803 
11:15	65.6	65.6	65.6	42	41.9	5	10	270	0.00	29.806 
11:20	65.8	65.8	65.8	42	42.1	4	7	270	0.00	29.806 
11:25	66.0	66.0	66.0	41	41.6	5	10	270	0.00	29.806 
11:30	66.3	66.3	66.3	41	41.9	3	5	270	0.00	29.801 
11:35	66.6	66.6	66.6	40	41.5	4	10	270	0.00	29.801 
11:40	66.8	66.8	66.8	37	39.7	6	11	270	0.00	29.801 
11:45	66.9	66.9	66.9	39	41.1	5	11	270	0.00	29.798 
11:50	67.4	67.4	67.4	36	39.5	4	9	270	0.00	29.798 
11:55	67.4	67.4	67.4	35	38.8	5	11	270	0.00	29.798 
12:00	67.8	67.8	67.8	34	38.4	4	9	270	0.00	29.799 
12:05	67.8	67.8	67.8	31	36.1	5	10	270	0.00	29.799 
12:10	67.6	67.6	67.6	33	37.5	6	10	270	0.00	29.799 
12:15	67.4	67.4	67.4	31	35.7	7	14	270	0.00	29.798 
12:20	67.6	67.6	67.6	32	36.7	5	10	270	0.00	29.798 
12:25	68.1	68.1	68.1	32	37.1	4	9	270	0.00	29.798 
12:30	68.1	68.1	68.1	33	37.9	5	13	270	0.00	29.797 
12:35	68.4	68.4	68.4	34	38.9	4	10	270	0.00	29.797 
12:40	68.3	68.3	68.3	34	38.8	6	13	270	0.00	29.797 
12:45	68.1	68.1	68.1	31	36.3	6	12	270	0.00	29.799 
12:50	67.9	67.9	67.9	32	36.9	7	12	270	0.00	29.799 
12:55	67.8	67.8	67.8	31	36.1	7	16	270	0.00	29.799 
13:00	67.8	67.8	67.8	31	36.1	7	13	270	0.00	29.800 
13:05	67.6	67.6	67.6	33	37.5	6	13	270	0.00	29.800 
13:10	67.9	67.9	67.9	33	37.7	5	10	270	0.00	29.800 
13:15	68.3	68.3	68.3	33	38.1	6	10	270	0.00	29.797 
13:20	68.3	68.3	68.3	32	37.3	6	10	270	0.00	29.797 
13:25	68.3	68.3	68.3	33	38.1	6	10	315	0.00	29.797 
13:30	68.4	68.4	68.4	31	36.6	6	11	270	0.00	29.802 
13:35	68.3	68.3	68.3	28	33.9	7	12	270	0.00	29.802 
13:40	68.1	68.1	68.1	29	34.6	7	11	270	0.00	29.802 
13:45	68.1	68.1	68.1	31	36.3	6	12	270	0.00	29.798 
13:50	68.4	68.4	68.4	31	36.6	5	10	270	0.00	29.798 
13:55	68.4	68.4	68.4	28	34.0	7	15	270	0.00	29.798 
14:00	68.4	68.4	68.4	28	34.0	7	15	270	0.00	29.800 
14:05	68.4	68.4	68.4	28	34.0	6	13	270	0.00	29.800 
14:10	68.6	68.6	68.6	31	36.8	5	11	270	0.00	29.800 
14:15	69.1	69.1	69.1	31	37.2	5	7	270	0.00	29.798 
14:20	69.3	69.3	69.3	29	35.7	5	9	270	0.00	29.798 
14:25	69.3	69.3	69.3	30	36.5	5	11	270	0.00	29.798 
14:30	69.4	69.4	69.4	28	34.9	5	12	270	0.00	29.796 
14:35	69.4	69.4	69.4	28	34.9	6	11	292	0.00	29.796 
14:40	69.3	69.3	69.3	29	35.7	6	10	270	0.00	29.796 
14:45	69.3	69.3	69.3	27	33.9	6	12	270	0.00	29.798 
14:50	69.1	69.1	69.1	28	34.6	6	12	270	0.00	29.798 
14:55	68.9	68.9	68.9	27	33.5	6	10	270	0.00	29.798 
15:00	69.1	69.1	69.1	27	33.7	6	11	270	0.00	29.796 
15:05	69.3	69.3	69.3	27	33.9	6	12	270	0.00	29.796 
15:10	69.4	69.4	69.4	28	34.9	6	11	270	0.00	29.796 
15:15	69.1	69.1	69.1	28	34.6	7	12	270	0.00	29.794 
15:20	69.4	69.4	69.4	27	34.0	5	10	270	0.00	29.794 
15:25	69.4	69.4	69.4	28	34.9	5	12	270	0.00	29.794 
15:30	69.8	69.8	69.8	27	34.3	4	10	270	0.00	29.794 
15:35	69.8	69.8	69.8	29	36.1	6	10	270	0.00	29.794 
15:40	69.6	69.6	69.6	27	34.1	6	11	270	0.00	29.794 
15:45	69.9	69.9	69.9	31	37.9	4	9	270	0.00	29.793 
15:50	70.1	70.1	70.1	29	36.4	5	12	270	0.00	29.793 
15:55	70.3	70.3	70.3	28	35.6	4	7	270	0.00	29.793 
16:00	70.3	70.3	70.3	27	34.7	5	11	292	0.00	29.795 
16:05	69.9	69.9	69.9	27	34.4	6	11	270	0.00	29.795 
16:10	69.8	69.8	69.8	28	35.2	6	11	270	0.00	29.795 
16:15	69.9	69.9	69.9	28	35.3	5	11	270	0.00	29.795 
16:20	69.9	69.9	69.9	28	35.3	5	10	270	0.00	29.795 
16:25	69.9	69.9	69.9	29	36.2	5	10	270	0.00	29.795 
16:30	69.9	69.9	69.9	28	35.3	5	10	270	0.00	29.798 
16:35	69.9	69.9	69.9	30	37.0	5	10	270	0.00	29.798 
16:40	69.9	69.9	69.9	29	36.2	4	7	270	0.00	29.798 
16:45	70.1	70.1	70.1	29	36.4	4	10	248	0.00	29.796 
16:50	70.1	70.1	70.1	32	38.9	3	10	292	0.00	29.796 
16:55	69.6	69.6	69.6	32	38.4	3	9	292	0.00	29.796 
17:00	69.1	69.1	69.1	35	40.3	2	5	270	0.00	29.801 
17:05	68.9	68.9	68.9	35	40.1	3	9	270	0.00	29.801 
17:10	68.8	68.8	68.8	35	40.0	3	8	270	0.00	29.801 
17:15	68.1	68.1	68.1	34	38.7	5	11	270	0.00	29.811 
17:20	67.6	67.6	67.6	35	39.0	4	11	315	0.00	29.811 
17:25	67.4	67.4	67.4	36	39.5	2	6	292	0.00	29.811 
17:30	67.4	67.4	67.4	38	40.9	2	5	292	0.00	29.811 
17:35	67.1	67.1	67.1	37	40.0	4	7	315	0.00	29.811 
17:40	66.8	66.8	66.8	38	40.4	3	9	315	0.00	29.811 
17:45	66.1	66.1	66.1	39	40.4	4	13	292	0.00	29.826 
17:50	65.8	65.8	65.8	38	39.5	4	8	292	0.00	29.826 
17:55	65.6	65.6	65.6	40	40.6	3	7	315	0.00	29.826 
18:00	65.6	65.6	65.6	41	41.3	3	9	292	0.00	29.826 
18:05	65.5	65.5	65.5	40	40.5	3	10	292	0.00	29.826 
18:10	65.3	65.3	65.3	40	40.4	3	7	292	0.00	29.826 
18:15	65.3	65.3	65.3	41	41.0	3	9	270	0.00	29.832 
18:20	65.0	65.0	65.0	41	40.7	3	9	315	0.00	29.832 
18:25	64.2	64.2	64.2	42	40.6	4	12	292	0.00	29.832 
18:30	63.9	63.9	63.9	42	40.4	4	9	315	0.00	29.846 
18:35	63.7	63.7	63.7	41	39.6	4	10	270	0.00	29.846 
18:40	63.5	63.5	63.5	42	40.0	4	10	270	0.00	29.846 
18:45	63.4	63.4	63.4	43	40.5	2	7	315	0.00	29.850 
18:50	63.2	63.2	63.2	44	40.9	2	7	270	0.00	29.850 
18:55	62.7	62.7	62.7	45	41.0	2	5	338	0.00	29.850 
19:00	62.3	62.3	62.3	45	40.7	2	4	270	0.00	29.858 
19:05	62.0	62.0	62.0	46	41.0	2	7	270	0.00	29.858 
19:10	61.3	61.3	61.3	47	40.9	2	6	270	0.00	29.858 
19:15	60.7	60.7	60.7	48	40.9	2	6	270	0.00	29.865 
19:20	60.2	60.2	60.2	49	41.0	2	10	270	0.00	29.865 
19:25	59.6	59.6	59.6	49	40.4	3	7	292	0.00	29.865 
19:30	59.3	59.3	59.3	50	40.7	1	4	292	0.00	29.879 
19:35	59.0	59.0	59.0	50	40.4	2	6	338	0.00	29.879 
19:40	58.7	58.7	58.7	51	40.6	1	4	292	0.00	29.879 
19:45	58.4	58.4	58.4	51	40.3	2	6	315	0.00	29.882 
19:50	58.1	58.1	58.1	50	39.6	3	6	292	0.00	29.882 
19:55	57.8	57.8	57.8	51	39.8	2	5	292	0.00	29.882 
20:00	57.3	57.3	57.3	51	39.3	3	6	292	0.00	29.890 
20:05	57.2	57.2	57.2	52	39.7	1	3	338	0.00	29.890 
20:10	56.7	56.7	56.7	52	39.3	1	4	315	0.00	29.890 
20:15	56.6	56.6	56.6	53	39.7	1	7	270	0.00	29.898 
20:20	56.3	56.3	56.3	54	39.9	1	4	270	0.00	29.898 
20:25	56.0	56.0	56.0	54	39.6	2	4	248	0.00	29.898 
20:30	55.7	55.7	55.7	55	39.8	1	4	248	0.00	29.908 
20:35	55.4	55.4	55.4	54	39.0	1	5	315	0.00	29.908 
20:40	55.1	55.1	55.1	54	38.8	1	5	270	0.00	29.908 
20:45	54.8	54.8	54.8	55	38.9	2	5	270	0.00	29.915 
20:50	54.5	54.5	54.5	56	39.1	1	3	270	0.00	29.915 
20:55	54.4	54.4	54.4	56	39.0	2	7	248	0.00	29.915 
21:00	54.1	54.1	54.1	56	38.8	1	3	270	0.00	29.926 
21:05	53.8	53.8	53.8	57	38.9	1	2	315	0.00	29.926 
21:10	53.5	53.5	53.5	57	38.6	0	3	315	0.00	29.926 
21:15	53.2	53.2	53.2	58	38.8	1	4	292	0.00	29.930 
21:20	53.1	53.1	53.1	58	38.7	1	5	315	0.00	29.930 
21:25	52.9	52.9	52.9	58	38.5	1	3	338	0.00	29.930 
21:30	52.8	52.8	52.8	57	38.0	1	5	292	0.00	29.942 
21:35	52.6	52.6	52.6	57	37.8	1	4	315	0.00	29.942 
21:40	52.3	52.3	52.3	57	37.5	1	6	292	0.00	29.942 
21:45	52.2	52.2	52.2	58	37.9	0	4	292	0.00	29.952 
21:50	51.9	51.9	51.9	58	37.6	0	3	0	0.00	29.952 
21:55	51.6	51.6	51.6	58	37.3	1	3	338	0.00	29.952 
22:00	51.3	51.3	51.3	58	37.0	0	2	292	0.00	29.960 
22:05	51.3	51.3	51.3	58	37.0	1	4	292	0.00	29.960 
22:10	51.1	51.1	51.1	58	36.8	0	2	292	0.00	29.960 
22:15	50.8	50.8	50.8	58	36.6	0	2	292	0.00	29.966 
22:20	50.7	50.7	50.7	58	36.5	0	4	292	0.00	29.966 
22:25	50.4	50.4	50.4	59	36.6	0	1	292	0.00	29.966 
22:30	50.2	50.2	50.2	59	36.4	1	6	270	0.00	29.977 
22:35	50.1	50.1	50.1	59	36.3	1	4	270	0.00	29.977 
22:40	49.9	49.9	49.9	60	36.6	0	3	292	0.00	29.977 
22:45	49.6	49.6	49.6	60	36.3	0	3	338	0.00	29.979 
22:50	49.5	49.5	49.5	60	36.2	1	4	0	0.00	29.979 
22:55	49.4	49.4	49.4	60	36.1	0	2	248	0.00	29.979 
23:00	49.1	49.1	49.1	60	35.8	0	1	248	0.00	29.980 
23:05	48.8	48.8	48.8	60	35.5	0	1	248	0.00	29.980 
23:10	48.6	48.6	48.6	61	35.8	0	1	248	0.00	29.980 
23:15	48.5	48.5	48.5	61	35.7	0	2	248	0.00	29.978 
23:20	48.3	48.3	48.3	61	35.5	0	1	248	0.00	29.978 
23:25	48.0	48.0	48.0	62	35.6	0	1	248	0.00	29.978 
23:30	47.7	47.7	47.7	62	35.3	0	0	---	0.00	29.978 
23:35	47.6	47.6	47.6	62	35.2	0	1	248	0.00	29.978 
23:40	47.6	47.6	47.6	62	35.2	0	1	248	0.00	29.978 
23:45	47.4	47.4	47.4	62	35.0	0	1	248	0.00	29.983 
23:50	47.3	47.3	47.3	62	34.9	0	1	248	0.00	29.983 
23:55	47.1	47.1	47.1	62	34.8	0	0	---	0.00	29.983 

CoCoRaHS
IN-AL-39
A2 Web Hosting
Creative Commons License
GoDaddy
search engine by freefind advanced

loaded 2018-11-17 06:11:18 • last modified 2010-11-18 10:43:29
Privacy PolicyDisclaimer
• wx.awcolley.com is powered by PmWiki v.2002016 •
• all content (unless otherwise noted) © 2018 A W Colley